Time;durP1;ratioP1;P1;durP2;ratioP2;P2;SDS_P1;SDS_P2;PMS_P1;PMS_P2;Temp;Humidity;BMP_temperature;BMP_pressure;BME280_temperature;BME280_humidity;BME280_pressure;Samples;Min_cycle;Max_cycle;Signal;HPM_P1;HPM_P2
2023/08/24 00:00:48;;;;;;;57.00;3.13;;;;;;;;;;5052064;28;20516;-69
2023/08/24 00:03:15;;;;;;;57.30;3.23;;;;;;;;;;5051401;28;20440;-69
2023/08/24 00:05:44;;;;;;;56.80;2.70;;;;;;;;;;5052276;28;20436;-69
2023/08/24 00:08:12;;;;;;;56.80;2.40;;;;;;;;;;5052094;28;20440;-69
2023/08/24 00:10:39;;;;;;;66.20;3.03;;;;;;;;;;5051939;28;20987;-69
2023/08/24 00:13:07;;;;;;;57.50;3.10;;;;;;;;;;5051651;28;20444;-70
2023/08/24 00:15:35;;;;;;;56.90;3.00;;;;;;;;;;5051529;28;20480;-70
2023/08/24 00:18:02;;;;;;;56.50;2.20;;;;;;;;;;5052047;28;20448;-70
2023/08/24 00:20:29;;;;;;;56.77;2.73;;;;;;;;;;5051859;28;20459;-70
2023/08/24 00:22:58;;;;;;;57.10;2.87;;;;;;;;;;5051707;28;20455;-70
2023/08/24 00:25:25;;;;;;;59.17;3.40;;;;;;;;;;5052065;28;20895;-70
2023/08/24 00:27:52;;;;;;;57.17;2.97;;;;;;;;;;5051644;28;20565;-70
2023/08/24 00:30:19;;;;;;;57.67;3.30;;;;;;;;;;5051503;28;20959;-70
2023/08/24 00:32:46;;;;;;;57.00;3.10;;;;;;;;;;5051541;28;20444;-68
2023/08/24 00:35:14;;;;;;;56.90;2.70;;;;;;;;;;5051566;28;20471;-69
2023/08/24 00:37:41;;;;;;;57.33;3.13;;;;;;;;;;5051040;28;20959;-70
2023/08/24 00:40:10;;;;;;;57.50;2.70;;;;;;;;;;5051429;28;20444;-69
2023/08/24 00:42:40;;;;;;;57.40;3.53;;;;;;;;;;5051009;28;20440;-69
2023/08/24 00:45:07;;;;;;;56.97;2.40;;;;;;;;;;5051493;28;20461;-69
2023/08/24 00:47:34;;;;;;;57.07;2.73;;;;;;;;;;5051507;28;20448;-69
2023/08/24 00:50:03;;;;;;;57.00;2.50;;;;;;;;;;5051382;28;20867;-69
2023/08/24 00:52:30;;;;;;;57.07;3.00;;;;;;;;;;5050911;28;20455;-69
2023/08/24 00:54:57;;;;;;;57.10;2.80;;;;;;;;;;5051054;28;20720;-69
2023/08/24 00:57:26;;;;;;;56.80;2.67;;;;;;;;;;5051186;28;20863;-69
2023/08/24 00:59:53;;;;;;;57.27;2.87;;;;;;;;;;5051171;28;20450;-69
2023/08/24 01:02:20;;;;;;;56.80;2.40;;;;;;;;;;5050860;28;20820;-69
2023/08/24 01:04:48;;;;;;;61.70;3.57;;;;;;;;;;5051004;28;20559;-70
2023/08/24 01:07:15;;;;;;;57.50;3.00;;;;;;;;;;5050880;28;20444;-70
2023/08/24 01:09:43;;;;;;;57.23;3.30;;;;;;;;;;5050937;28;20534;-70
2023/08/24 01:12:16;;;;;;;57.60;2.90;;;;;;;;;;5050952;28;20453;-68
2023/08/24 01:14:48;;;;;;;57.47;3.10;;;;;;;;;;5050784;28;20472;-68
2023/08/24 01:17:17;;;;;;;57.33;2.73;;;;;;;;;;5050823;28;20487;-69
2023/08/24 01:19:45;;;;;;;57.07;2.60;;;;;;;;;;5050857;28;20838;-69
2023/08/24 01:22:19;;;;;;;57.10;3.00;;;;;;;;;;5050502;28;20935;-69
2023/08/24 01:24:49;;;;;;;57.20;2.77;;;;;;;;;;5050960;28;20474;-69
2023/08/24 01:27:18;;;;;;;56.97;2.37;;;;;;;;;;5050689;28;20948;-68
2023/08/24 01:29:45;;;;;;;58.77;3.47;;;;;;;;;;5050842;28;20542;-68
2023/08/24 01:32:12;;;;;;;57.40;2.93;;;;;;;;;;5050456;28;20449;-69
2023/08/24 01:34:39;;;;;;;57.50;2.90;;;;;;;;;;5050541;28;20465;-70
2023/08/24 01:37:07;;;;;;;57.10;2.40;;;;;;;;;;5050379;28;20495;-69
2023/08/24 01:39:38;;;;;;;57.80;3.77;;;;;;;;;;5049311;28;20449;-70
2023/08/24 01:42:07;;;;;;;58.07;3.13;;;;;;;;;;5050498;28;20824;-69
2023/08/24 01:44:36;;;;;;;57.30;3.00;;;;;;;;;;5050436;28;20908;-70
2023/08/24 01:47:05;;;;;;;57.27;3.40;;;;;;;;;;5050683;28;20440;-69
2023/08/24 01:49:33;;;;;;;56.87;2.50;;;;;;;;;;5050477;28;20954;-69
2023/08/24 01:52:00;;;;;;;56.87;2.60;;;;;;;;;;5050470;28;20440;-69
2023/08/24 01:54:27;;;;;;;58.47;3.30;;;;;;;;;;5050351;28;20460;-69
2023/08/24 01:56:54;;;;;;;57.20;2.97;;;;;;;;;;5050254;28;20486;-69
2023/08/24 01:59:21;;;;;;;59.40;2.90;;;;;;;;;;5050749;28;20806;-69
2023/08/24 02:01:50;;;;;;;60.13;3.27;;;;;;;;;;5050461;28;20440;-70
2023/08/24 02:04:17;;;;;;;57.77;3.17;;;;;;;;;;5050430;28;20813;-69
2023/08/24 02:06:44;;;;;;;57.57;2.70;;;;;;;;;;5050303;28;20440;-69
2023/08/24 02:09:11;;;;;;;57.10;3.13;;;;;;;;;;5050371;28;20479;-70
2023/08/24 02:11:38;;;;;;;57.10;3.20;;;;;;;;;;5050025;28;20972;-70
2023/08/24 02:14:05;;;;;;;57.03;2.57;;;;;;;;;;5050451;28;20464;-70
2023/08/24 02:16:33;;;;;;;57.47;2.80;;;;;;;;;;5050135;28;20480;-69
2023/08/24 02:19:01;;;;;;;57.50;3.43;;;;;;;;;;5050452;28;20936;-70
2023/08/24 02:21:28;;;;;;;57.40;3.20;;;;;;;;;;5050253;28;20452;-70
2023/08/24 02:23:55;;;;;;;56.67;2.70;;;;;;;;;;5049860;28;20464;-70
2023/08/24 02:26:22;;;;;;;57.50;2.90;;;;;;;;;;5051924;28;20436;-70
2023/08/24 02:28:49;;;;;;;56.70;2.57;;;;;;;;;;5054135;28;20444;-70
2023/08/24 02:31:17;;;;;;;57.07;2.83;;;;;;;;;;5054055;28;20455;-69
2023/08/24 02:33:44;;;;;;;57.30;3.07;;;;;;;;;;5053589;28;20468;-70
2023/08/24 02:36:12;;;;;;;58.00;3.43;;;;;;;;;;5053526;28;20913;-69
2023/08/24 02:38:39;;;;;;;57.27;3.23;;;;;;;;;;5053490;28;20551;-69
2023/08/24 02:41:10;;;;;;;57.47;3.03;;;;;;;;;;5053520;28;20974;-70
2023/08/24 02:43:39;;;;;;;58.10;3.60;;;;;;;;;;5053365;28;20555;-69
2023/08/24 02:46:06;;;;;;;57.43;3.10;;;;;;;;;;5053444;28;20452;-70
2023/08/24 02:48:34;;;;;;;57.07;2.83;;;;;;;;;;5053585;28;20444;-70
2023/08/24 02:51:02;;;;;;;57.50;3.27;;;;;;;;;;5053458;28;20448;-69
2023/08/24 02:53:31;;;;;;;57.67;3.87;;;;;;;;;;5053290;28;20455;-67
2023/08/24 02:55:58;;;;;;;56.97;2.63;;;;;;;;;;5053462;28;20814;-68
2023/08/24 02:58:25;;;;;;;58.43;3.17;;;;;;;;;;5053361;28;20488;-68
2023/08/24 03:00:52;;;;;;;57.57;2.90;;;;;;;;;;5053713;28;20452;-69
2023/08/24 03:03:20;;;;;;;57.57;3.20;;;;;;;;;;5052899;28;20448;-69
2023/08/24 03:05:54;;;;;;;58.90;3.90;;;;;;;;;;5052918;28;20479;-69
2023/08/24 03:08:21;;;;;;;59.40;4.20;;;;;;;;;;5053368;28;20767;-69
2023/08/24 03:10:50;;;;;;;57.57;3.03;;;;;;;;;;5053254;28;20444;-69
2023/08/24 03:13:17;;;;;;;57.63;3.80;;;;;;;;;;5052903;28;20787;-69
2023/08/24 03:15:44;;;;;;;57.20;3.07;;;;;;;;;;5053060;28;20444;-69
2023/08/24 03:18:12;;;;;;;57.90;3.50;;;;;;;;;;5052734;28;20480;-69
2023/08/24 03:20:40;;;;;;;57.50;2.80;;;;;;;;;;5052977;28;20471;-69
2023/08/24 03:23:07;;;;;;;58.20;3.97;;;;;;;;;;5052824;28;20804;-69
2023/08/24 03:25:37;;;;;;;58.30;3.13;;;;;;;;;;5052661;28;21000;-68
2023/08/24 03:28:06;;;;;;;57.97;3.37;;;;;;;;;;5053109;28;20494;-68
2023/08/24 03:30:33;;;;;;;57.87;3.67;;;;;;;;;;5052846;28;20501;-68
2023/08/24 03:33:01;;;;;;;57.20;2.83;;;;;;;;;;5052334;28;20785;-68
2023/08/24 03:35:28;;;;;;;58.53;3.37;;;;;;;;;;5052898;28;20828;-68
2023/08/24 03:37:55;;;;;;;57.07;2.90;;;;;;;;;;5051338;28;20498;-68
2023/08/24 03:40:22;;;;;;;57.20;2.97;;;;;;;;;;5052580;28;20978;-68
2023/08/24 03:42:49;;;;;;;57.60;3.00;;;;;;;;;;5052241;28;20793;-68
2023/08/24 03:45:17;;;;;;;57.60;3.40;;;;;;;;;;5052254;28;20460;-69
2023/08/24 03:47:44;;;;;;;58.23;3.60;;;;;;;;;;5052482;28;20444;-69
2023/08/24 03:50:12;;;;;;;56.97;2.93;;;;;;;;;;5052396;28;20547;-69
2023/08/24 03:52:39;;;;;;;57.40;3.47;;;;;;;;;;5052184;28;20451;-69
2023/08/24 03:55:07;;;;;;;57.73;3.40;;;;;;;;;;5052418;28;20464;-69
2023/08/24 03:57:34;;;;;;;57.40;3.10;;;;;;;;;;5052094;28;20529;-69
2023/08/24 04:00:01;;;;;;;57.57;3.03;;;;;;;;;;5052082;28;20452;-69
2023/08/24 04:02:29;;;;;;;59.40;4.50;;;;;;;;;;5051780;28;21192;-69
2023/08/24 04:04:56;;;;;;;58.17;3.60;;;;;;;;;;5052234;28;20467;-69
2023/08/24 04:07:24;;;;;;;57.83;3.40;;;;;;;;;;5051950;28;20510;-69
2023/08/24 04:09:51;;;;;;;57.10;2.90;;;;;;;;;;5051906;28;20451;-69
2023/08/24 04:12:18;;;;;;;58.80;3.27;;;;;;;;;;5051600;28;20531;-69
2023/08/24 04:14:45;;;;;;;58.90;3.67;;;;;;;;;;5051678;28;20465;-69
2023/08/24 04:17:12;;;;;;;57.20;3.00;;;;;;;;;;5051931;28;20480;-69
2023/08/24 04:19:40;;;;;;;58.23;3.53;;;;;;;;;;5051908;28;20448;-69
2023/08/24 04:22:07;;;;;;;59.40;3.80;;;;;;;;;;5051396;28;20458;-67
2023/08/24 04:24:34;;;;;;;56.90;2.53;;;;;;;;;;5051685;28;20471;-68
2023/08/24 04:27:01;;;;;;;58.27;4.60;;;;;;;;;;5051461;28;20432;-68
2023/08/24 04:29:29;;;;;;;57.20;3.17;;;;;;;;;;5051683;28;20448;-68
2023/08/24 04:31:56;;;;;;;56.97;2.67;;;;;;;;;;5051261;28;20444;-68
2023/08/24 04:34:23;;;;;;;57.27;3.13;;;;;;;;;;5051738;28;20831;-68
2023/08/24 04:36:51;;;;;;;56.80;2.87;;;;;;;;;;5051412;28;20456;-68
2023/08/24 04:39:18;;;;;;;57.27;3.17;;;;;;;;;;5051464;28;20444;-68
2023/08/24 04:41:45;;;;;;;58.30;4.20;;;;;;;;;;5051066;28;20444;-68
2023/08/24 04:44:12;;;;;;;57.80;2.60;;;;;;;;;;5051232;28;20988;-68
2023/08/24 04:46:39;;;;;;;57.57;2.97;;;;;;;;;;5051445;28;20454;-68
2023/08/24 04:49:07;;;;;;;57.10;2.90;;;;;;;;;;5051008;28;20445;-68
2023/08/24 04:51:34;;;;;;;59.87;3.27;;;;;;;;;;5051210;28;20531;-69
2023/08/24 04:54:03;;;;;;;57.27;3.20;;;;;;;;;;5050806;28;20461;-68
2023/08/24 04:56:30;;;;;;;57.37;3.10;;;;;;;;;;5051255;28;20448;-68
2023/08/24 04:59:00;;;;;;;57.27;2.90;;;;;;;;;;5051087;28;20539;-68
2023/08/24 05:01:27;;;;;;;57.40;2.90;;;;;;;;;;5051264;28;20539;-68
2023/08/24 05:03:54;;;;;;;57.23;3.10;;;;;;;;;;5050637;28;20998;-69
2023/08/24 05:06:21;;;;;;;58.70;4.50;;;;;;;;;;5050818;28;20444;-68
2023/08/24 05:08:49;;;;;;;57.37;2.97;;;;;;;;;;5050931;28;20440;-68
2023/08/24 05:11:19;;;;;;;57.77;2.80;;;;;;;;;;5050892;28;20449;-69
2023/08/24 05:13:46;;;;;;;56.90;2.97;;;;;;;;;;5050763;28;20471;-69
2023/08/24 05:16:14;;;;;;;56.83;2.90;;;;;;;;;;5050727;28;20456;-70
2023/08/24 05:18:41;;;;;;;56.90;3.10;;;;;;;;;;5050804;28;20476;-69
2023/08/24 05:21:08;;;;;;;56.90;3.27;;;;;;;;;;5050770;28;20444;-70
2023/08/24 05:23:36;;;;;;;57.40;3.00;;;;;;;;;;5050740;28;20454;-69
2023/08/24 05:26:03;;;;;;;57.07;3.90;;;;;;;;;;5050829;28;20448;-69
2023/08/24 05:28:32;;;;;;;57.90;3.50;;;;;;;;;;5050763;28;20454;-69
2023/08/24 05:31:00;;;;;;;58.50;3.27;;;;;;;;;;5050630;28;20448;-69
2023/08/24 05:33:30;;;;;;;57.67;3.57;;;;;;;;;;5050891;28;20804;-69
2023/08/24 05:35:58;;;;;;;56.97;2.70;;;;;;;;;;5050605;28;20495;-69
2023/08/24 05:38:25;;;;;;;57.47;2.83;;;;;;;;;;5050601;28;20511;-69
2023/08/24 05:40:52;;;;;;;57.00;2.80;;;;;;;;;;5050888;28;20463;-70
2023/08/24 05:43:19;;;;;;;56.53;2.70;;;;;;;;;;5050265;28;20448;-70
2023/08/24 05:45:49;;;;;;;57.10;2.70;;;;;;;;;;5050568;28;20478;-69
2023/08/24 05:48:16;;;;;;;57.10;3.90;;;;;;;;;;5050475;28;20454;-70
2023/08/24 05:50:46;;;;;;;56.73;2.77;;;;;;;;;;5050647;28;20453;-69
2023/08/24 05:53:14;;;;;;;56.80;2.73;;;;;;;;;;5050419;28;20458;-70
2023/08/24 05:55:41;;;;;;;57.03;2.70;;;;;;;;;;5050499;28;20561;-70
2023/08/24 05:58:08;;;;;;;56.90;2.60;;;;;;;;;;5050365;28;20480;-70
2023/08/24 06:00:35;;;;;;;57.37;2.80;;;;;;;;;;5051102;28;20444;-70
2023/08/24 06:03:04;;;;;;;57.50;3.33;;;;;;;;;;5053990;28;20440;-70
2023/08/24 06:05:31;;;;;;;56.70;2.77;;;;;;;;;;5054123;28;20478;-68
2023/08/24 06:07:59;;;;;;;57.83;4.10;;;;;;;;;;5054238;28;20936;-68
2023/08/24 06:10:27;;;;;;;56.80;2.60;;;;;;;;;;5054074;28;20439;-68
2023/08/24 06:12:54;;;;;;;57.20;3.13;;;;;;;;;;5053825;28;20449;-69
2023/08/24 06:15:24;;;;;;;56.77;2.73;;;;;;;;;;5053826;28;20470;-68
2023/08/24 06:17:51;;;;;;;56.90;2.40;;;;;;;;;;5054128;28;20492;-68
2023/08/24 06:20:19;;;;;;;56.93;2.80;;;;;;;;;;5054106;28;20451;-69
2023/08/24 06:22:46;;;;;;;56.67;2.77;;;;;;;;;;5053736;28;20448;-69
2023/08/24 06:25:14;;;;;;;57.00;2.90;;;;;;;;;;5053908;28;20464;-69
2023/08/24 06:27:41;;;;;;;58.37;3.57;;;;;;;;;;5053742;28;20471;-69
2023/08/24 06:30:09;;;;;;;56.70;2.60;;;;;;;;;;5054048;28;20801;-69
2023/08/24 06:32:36;;;;;;;56.43;2.57;;;;;;;;;;5053771;28;20470;-69
2023/08/24 06:35:04;;;;;;;56.97;2.83;;;;;;;;;;5053754;28;20521;-69
2023/08/24 06:37:32;;;;;;;57.60;3.03;;;;;;;;;;5053486;28;20510;-69
2023/08/24 06:39:59;;;;;;;57.77;3.37;;;;;;;;;;5053613;28;20455;-69
2023/08/24 06:42:27;;;;;;;56.60;2.20;;;;;;;;;;5053222;28;20456;-68
2023/08/24 06:44:54;;;;;;;57.17;3.60;;;;;;;;;;5053589;28;20459;-69
2023/08/24 06:47:21;;;;;;;57.27;2.53;;;;;;;;;;5053566;28;20822;-69
2023/08/24 06:49:48;;;;;;;57.27;2.70;;;;;;;;;;5053575;28;20436;-69
2023/08/24 06:52:15;;;;;;;56.43;2.13;;;;;;;;;;5053286;28;20447;-69
2023/08/24 06:54:44;;;;;;;57.10;2.80;;;;;;;;;;5053219;28;20554;-69
2023/08/24 06:57:11;;;;;;;56.57;2.30;;;;;;;;;;5053214;28;20452;-69
2023/08/24 06:59:38;;;;;;;57.53;3.30;;;;;;;;;;5053326;28;20846;-68
2023/08/24 07:02:05;;;;;;;59.00;3.10;;;;;;;;;;5053096;28;20445;-69
2023/08/24 07:04:34;;;;;;;58.50;3.80;;;;;;;;;;5053207;28;20480;-69
2023/08/24 07:07:01;;;;;;;57.23;2.60;;;;;;;;;;5053107;28;21097;-70
2023/08/24 07:09:29;;;;;;;56.90;2.83;;;;;;;;;;5052947;28;20456;-69
2023/08/24 07:11:57;;;;;;;57.10;2.83;;;;;;;;;;5052737;28;20470;-69
2023/08/24 07:14:24;;;;;;;57.97;3.13;;;;;;;;;;5053174;28;20466;-69
2023/08/24 07:16:52;;;;;;;56.70;2.80;;;;;;;;;;5052833;28;20451;-69
2023/08/24 07:19:19;;;;;;;57.17;2.87;;;;;;;;;;5052921;28;20492;-69
2023/08/24 07:21:46;;;;;;;56.90;2.80;;;;;;;;;;5052657;28;20444;-69
2023/08/24 07:24:13;;;;;;;58.00;3.00;;;;;;;;;;5052922;28;20476;-70
2023/08/24 07:26:42;;;;;;;56.70;2.50;;;;;;;;;;5052865;28;20444;-69
2023/08/24 07:29:10;;;;;;;56.80;2.20;;;;;;;;;;5052912;28;20447;-69
2023/08/24 07:31:37;;;;;;;56.70;2.50;;;;;;;;;;5052465;28;20456;-70
2023/08/24 07:34:05;;;;;;;57.00;2.50;;;;;;;;;;5052465;28;20987;-69
2023/08/24 07:36:32;;;;;;;58.40;2.70;;;;;;;;;;5052247;28;20455;-70
2023/08/24 07:38:59;;;;;;;57.30;3.30;;;;;;;;;;5052453;28;20537;-69
2023/08/24 07:41:26;;;;;;;57.00;3.07;;;;;;;;;;5052654;28;20447;-70
2023/08/24 07:43:53;;;;;;;56.57;2.70;;;;;;;;;;5052299;28;20848;-70
2023/08/24 07:46:22;;;;;;;56.53;2.40;;;;;;;;;;5052457;28;20444;-70
2023/08/24 07:48:49;;;;;;;56.30;3.17;;;;;;;;;;5052410;28;20816;-69
2023/08/24 07:51:16;;;;;;;59.50;3.47;;;;;;;;;;5052188;28;20543;-70
2023/08/24 07:53:43;;;;;;;57.50;3.13;;;;;;;;;;5052128;28;21007;-69
2023/08/24 07:56:10;;;;;;;56.40;2.10;;;;;;;;;;5052348;28;20552;-69
2023/08/24 07:58:37;;;;;;;56.60;2.20;;;;;;;;;;5052045;28;20494;-69
2023/08/24 08:01:04;;;;;;;59.33;3.50;;;;;;;;;;5052166;28;20772;-70
2023/08/24 08:03:35;;;;;;;57.33;3.10;;;;;;;;;;5051675;28;20940;-69
2023/08/24 08:06:03;;;;;;;56.47;2.37;;;;;;;;;;5052026;28;20456;-70
2023/08/24 08:08:30;;;;;;;56.93;2.57;;;;;;;;;;5052215;28;20452;-69
2023/08/24 08:11:01;;;;;;;56.60;2.30;;;;;;;;;;5051874;28;20437;-69
2023/08/24 08:13:28;;;;;;;57.40;3.10;;;;;;;;;;5051577;28;20440;-70
2023/08/24 08:15:55;;;;;;;57.40;3.10;;;;;;;;;;5051738;28;20440;-70
2023/08/24 08:18:22;;;;;;;57.40;3.43;;;;;;;;;;5051617;28;20999;-70
2023/08/24 08:20:52;;;;;;;56.73;2.50;;;;;;;;;;5052009;28;20448;-70
2023/08/24 08:23:19;;;;;;;56.30;2.40;;;;;;;;;;5051023;28;20452;-70
2023/08/24 08:25:46;;;;;;;56.67;2.47;;;;;;;;;;5051652;28;20456;-70
2023/08/24 08:28:13;;;;;;;56.00;2.17;;;;;;;;;;5051613;28;20448;-70
2023/08/24 08:30:41;;;;;;;56.07;2.50;;;;;;;;;;5051423;28;20951;-70
2023/08/24 08:33:08;;;;;;;56.87;2.50;;;;;;;;;;5051466;28;20470;-70
2023/08/24 08:35:35;;;;;;;57.20;2.67;;;;;;;;;;5051527;28;20469;-70
2023/08/24 08:38:03;;;;;;;56.57;2.27;;;;;;;;;;5051319;28;20456;-70
2023/08/24 08:40:31;;;;;;;56.70;2.50;;;;;;;;;;5051440;28;20562;-70
2023/08/24 08:42:59;;;;;;;57.00;2.17;;;;;;;;;;5051143;28;20456;-70
2023/08/24 08:45:26;;;;;;;56.40;2.20;;;;;;;;;;5051031;28;20547;-70
2023/08/24 08:47:54;;;;;;;56.87;2.40;;;;;;;;;;5051534;28;20451;-70
2023/08/24 08:50:22;;;;;;;56.43;2.47;;;;;;;;;;5051403;28;20447;-70
2023/08/24 08:52:49;;;;;;;57.10;2.83;;;;;;;;;;5051090;28;20518;-70
2023/08/24 08:55:17;;;;;;;58.13;3.10;;;;;;;;;;5051036;28;20460;-70
2023/08/24 08:57:45;;;;;;;56.97;2.93;;;;;;;;;;5051067;28;20819;-70
2023/08/24 09:00:14;;;;;;;56.23;2.40;;;;;;;;;;5051574;28;20484;-70
2023/08/24 09:02:44;;;;;;;56.50;2.40;;;;;;;;;;5051009;28;20452;-70
2023/08/24 09:05:11;;;;;;;57.33;2.40;;;;;;;;;;5051033;28;20992;-71
2023/08/24 09:07:38;;;;;;;56.97;2.30;;;;;;;;;;5050855;28;20445;-71
2023/08/24 09:10:07;;;;;;;56.17;2.60;;;;;;;;;;5050999;28;20542;-70
2023/08/24 09:12:35;;;;;;;56.47;2.90;;;;;;;;;;5050639;28;20448;-70
2023/08/24 09:15:06;;;;;;;56.27;2.37;;;;;;;;;;5051036;28;20475;-71
2023/08/24 09:17:33;;;;;;;55.97;2.37;;;;;;;;;;5050918;28;20444;-71
2023/08/24 09:20:01;;;;;;;56.70;2.87;;;;;;;;;;5050909;28;20957;-71
2023/08/24 09:22:28;;;;;;;56.03;2.20;;;;;;;;;;5050664;28;20436;-71
2023/08/24 09:24:56;;;;;;;56.30;2.23;;;;;;;;;;5050539;28;20973;-71
2023/08/24 09:27:23;;;;;;;56.20;2.40;;;;;;;;;;5050900;28;20876;-71
2023/08/24 09:29:53;;;;;;;56.70;2.30;;;;;;;;;;5050620;28;20805;-71
2023/08/24 09:32:23;;;;;;;58.03;3.17;;;;;;;;;;5050479;28;20448;-69
2023/08/24 09:34:50;;;;;;;58.20;4.10;;;;;;;;;;5050813;28;21046;-69
2023/08/24 09:37:18;;;;;;;56.07;2.40;;;;;;;;;;5054182;28;20461;-70
2023/08/24 09:39:46;;;;;;;56.23;2.00;;;;;;;;;;5054893;28;20480;-70
2023/08/24 09:42:13;;;;;;;56.60;2.57;;;;;;;;;;5054593;28;20502;-70
2023/08/24 09:44:45;;;;;;;56.97;3.30;;;;;;;;;;5054696;28;20471;-69
2023/08/24 09:47:13;;;;;;;58.30;2.93;;;;;;;;;;5055085;28;20451;-70
2023/08/24 09:49:41;;;;;;;57.60;2.93;;;;;;;;;;5054607;28;20526;-70
2023/08/24 09:52:09;;;;;;;56.60;2.53;;;;;;;;;;5054481;28;20462;-70
2023/08/24 09:54:38;;;;;;;56.50;2.60;;;;;;;;;;5054553;28;20468;-70
2023/08/24 09:57:08;;;;;;;56.00;2.20;;;;;;;;;;5054535;28;20444;-70
2023/08/24 09:59:36;;;;;;;57.10;2.70;;;;;;;;;;5054451;28;20491;-70
2023/08/24 10:02:03;;;;;;;56.50;2.47;;;;;;;;;;5054617;28;20448;-70
2023/08/24 10:04:34;;;;;;;56.83;3.00;;;;;;;;;;5054123;28;20475;-70
2023/08/24 10:07:05;;;;;;;57.50;2.70;;;;;;;;;;5054215;28;20452;-70
2023/08/24 10:09:33;;;;;;;56.80;2.90;;;;;;;;;;5054294;28;20994;-70
2023/08/24 10:12:01;;;;;;;56.70;2.60;;;;;;;;;;5054080;28;20475;-70
2023/08/24 10:14:30;;;;;;;56.17;2.60;;;;;;;;;;5054180;28;20904;-70
2023/08/24 10:16:57;;;;;;;56.40;2.83;;;;;;;;;;5053963;28;20871;-68
2023/08/24 10:19:25;;;;;;;55.97;2.70;;;;;;;;;;5054407;28;20513;-68
2023/08/24 10:21:57;;;;;;;55.97;2.60;;;;;;;;;;5053719;28;20452;-70
2023/08/24 10:24:24;;;;;;;56.03;2.57;;;;;;;;;;5054036;28;20476;-70
2023/08/24 10:26:52;;;;;;;56.17;2.30;;;;;;;;;;5053900;28;20893;-70
2023/08/24 10:29:20;;;;;;;55.80;2.33;;;;;;;;;;5053953;28;20442;-69
2023/08/24 10:31:47;;;;;;;55.37;2.30;;;;;;;;;;5053718;28;20448;-70
2023/08/24 10:34:14;;;;;;;55.80;2.50;;;;;;;;;;5053654;28;20463;-69
2023/08/24 10:36:41;;;;;;;55.47;2.50;;;;;;;;;;5053734;28;20444;-69
2023/08/24 10:39:10;;;;;;;55.20;2.27;;;;;;;;;;5053740;28;20484;-69
2023/08/24 10:41:47;;;;;;;56.47;3.00;;;;;;;;;;5053936;28;20440;-69
2023/08/24 10:44:22;;;;;;;55.70;2.60;;;;;;;;;;5053560;28;20471;-69
2023/08/24 10:47:04;;;;;;;55.40;2.70;;;;;;;;;;5053412;28;20795;-70
2023/08/24 10:49:31;;;;;;;56.10;2.90;;;;;;;;;;5053481;28;20440;-69
2023/08/24 10:51:58;;;;;;;56.00;2.67;;;;;;;;;;5053164;28;20440;-70
2023/08/24 10:54:32;;;;;;;56.03;2.63;;;;;;;;;;5053197;28;20539;-70
2023/08/24 10:57:04;;;;;;;55.33;2.37;;;;;;;;;;5053256;28;20498;-70
2023/08/24 10:59:37;;;;;;;57.50;3.00;;;;;;;;;;5053609;28;20925;-70
2023/08/24 11:02:06;;;;;;;55.50;2.27;;;;;;;;;;5053292;28;20453;-70
2023/08/24 11:04:33;;;;;;;56.00;3.33;;;;;;;;;;5053533;28;20472;-69
2023/08/24 11:07:02;;;;;;;55.70;2.60;;;;;;;;;;5052925;28;20448;-70
2023/08/24 11:09:46;;;;;;;55.70;2.50;;;;;;;;;;5053258;28;20475;-70
2023/08/24 11:12:13;;;;;;;55.60;2.83;;;;;;;;;;5052992;28;20507;-70
2023/08/24 11:14:51;;;;;;;55.63;2.37;;;;;;;;;;5052953;28;20475;-70
2023/08/24 11:17:22;;;;;;;55.37;2.50;;;;;;;;;;5053449;28;20432;-70
2023/08/24 11:19:51;;;;;;;55.30;2.10;;;;;;;;;;5052787;28;20869;-70
2023/08/24 11:22:18;;;;;;;55.50;2.50;;;;;;;;;;5053005;28;20440;-71
2023/08/24 11:24:47;;;;;;;55.40;2.33;;;;;;;;;;5052966;28;20460;-70
2023/08/24 11:27:14;;;;;;;55.50;2.23;;;;;;;;;;5052894;28;20835;-70
2023/08/24 11:29:41;;;;;;;55.40;2.63;;;;;;;;;;5052613;28;20959;-70
2023/08/24 11:32:08;;;;;;;56.80;3.40;;;;;;;;;;5052257;28;20466;-70
2023/08/24 11:34:35;;;;;;;55.80;2.57;;;;;;;;;;5052716;28;20492;-69
2023/08/24 11:37:03;;;;;;;55.87;3.47;;;;;;;;;;5052529;28;20506;-69
2023/08/24 11:39:31;;;;;;;56.07;3.00;;;;;;;;;;5052553;28;20484;-69
2023/08/24 11:42:00;;;;;;;55.30;2.30;;;;;;;;;;5052344;28;20510;-69
2023/08/24 11:44:27;;;;;;;55.67;2.70;;;;;;;;;;5052773;28;20464;-69
2023/08/24 11:46:54;;;;;;;55.10;2.30;;;;;;;;;;5052606;28;20460;-69
2023/08/24 11:49:21;;;;;;;55.13;2.27;;;;;;;;;;5052504;28;20440;-70
2023/08/24 11:51:50;;;;;;;55.80;2.97;;;;;;;;;;5051927;28;20820;-69
2023/08/24 11:54:18;;;;;;;55.10;2.33;;;;;;;;;;5052309;28;20518;-70
2023/08/24 11:56:46;;;;;;;55.30;3.23;;;;;;;;;;5052191;28;20455;-70
2023/08/24 11:59:15;;;;;;;55.20;2.80;;;;;;;;;;5051076;28;20835;-69
2023/08/24 12:01:42;;;;;;;55.20;2.57;;;;;;;;;;5052196;28;20527;-70
2023/08/24 12:04:09;;;;;;;55.10;2.37;;;;;;;;;;5052216;28;20463;-69
2023/08/24 12:06:36;;;;;;;54.80;2.37;;;;;;;;;;5052004;28;20444;-68
2023/08/24 12:09:06;;;;;;;54.93;2.60;;;;;;;;;;5052002;28;20475;-70
2023/08/24 12:11:36;;;;;;;55.47;2.60;;;;;;;;;;5052283;28;20444;-70
2023/08/24 12:14:05;;;;;;;54.80;2.83;;;;;;;;;;5051938;28;20472;-70
2023/08/24 12:16:34;;;;;;;55.10;2.60;;;;;;;;;;5051956;28;20538;-70
2023/08/24 12:19:03;;;;;;;55.10;2.70;;;;;;;;;;5051874;28;20446;-70
2023/08/24 12:21:30;;;;;;;54.87;2.40;;;;;;;;;;5051709;28;20863;-70
2023/08/24 12:23:58;;;;;;;54.80;3.10;;;;;;;;;;5051461;28;20537;-70
2023/08/24 12:26:25;;;;;;;55.10;2.97;;;;;;;;;;5051607;28;20456;-70
2023/08/24 12:28:52;;;;;;;55.17;2.60;;;;;;;;;;5051716;28;20991;-70
2023/08/24 12:31:20;;;;;;;54.97;2.70;;;;;;;;;;5051670;28;20436;-70
2023/08/24 12:33:59;;;;;;;54.60;2.23;;;;;;;;;;5051185;28;20472;-71
2023/08/24 12:36:26;;;;;;;54.73;3.00;;;;;;;;;;5051218;28;20511;-71
2023/08/24 12:38:53;;;;;;;54.77;2.33;;;;;;;;;;5051678;28;20798;-70
2023/08/24 12:41:20;;;;;;;55.80;2.93;;;;;;;;;;5051345;28;21098;-71
2023/08/24 12:43:47;;;;;;;55.47;2.90;;;;;;;;;;5051209;28;20478;-70
2023/08/24 12:46:14;;;;;;;56.50;3.97;;;;;;;;;;5051270;28;20449;-70
2023/08/24 12:48:41;;;;;;;55.00;2.40;;;;;;;;;;5051265;28;20539;-70
2023/08/24 12:51:10;;;;;;;55.20;2.40;;;;;;;;;;5051077;28;20442;-70
2023/08/24 12:53:37;;;;;;;55.33;2.93;;;;;;;;;;5051156;28;20530;-70
2023/08/24 12:56:04;;;;;;;57.00;3.13;;;;;;;;;;5051036;28;20452;-70
2023/08/24 12:58:31;;;;;;;55.17;2.90;;;;;;;;;;5051179;28;20855;-70
2023/08/24 13:00:58;;;;;;;55.70;3.37;;;;;;;;;;5051090;28;20959;-70
2023/08/24 13:03:25;;;;;;;54.97;2.50;;;;;;;;;;5050779;28;20447;-70
2023/08/24 13:05:53;;;;;;;55.07;2.87;;;;;;;;;;5050754;28;20447;-69
2023/08/24 13:08:21;;;;;;;55.00;2.77;;;;;;;;;;5050939;28;20489;-69
2023/08/24 13:10:48;;;;;;;55.63;2.90;;;;;;;;;;5050787;28;20492;-69
2023/08/24 13:13:15;;;;;;;55.20;2.37;;;;;;;;;;5050750;28;20821;-70
2023/08/24 13:15:43;;;;;;;55.70;2.87;;;;;;;;;;5050902;28;20464;-70
2023/08/24 13:18:10;;;;;;;56.07;2.60;;;;;;;;;;5050661;28;20878;-70
2023/08/24 13:20:37;;;;;;;55.27;2.80;;;;;;;;;;5051051;28;20490;-70
2023/08/24 13:23:04;;;;;;;55.20;2.37;;;;;;;;;;5050709;28;20945;-70
2023/08/24 13:25:33;;;;;;;54.97;2.10;;;;;;;;;;5050733;28;20476;-70
2023/08/24 13:28:01;;;;;;;54.90;2.20;;;;;;;;;;5050859;28;20531;-70
2023/08/24 13:30:28;;;;;;;55.00;2.63;;;;;;;;;;5050653;28;20484;-69
2023/08/24 13:32:55;;;;;;;55.10;2.70;;;;;;;;;;5050271;28;20451;-70
2023/08/24 13:35:23;;;;;;;57.70;2.43;;;;;;;;;;5050627;28;20468;-70
2023/08/24 13:37:51;;;;;;;54.87;2.43;;;;;;;;;;5050700;28;20452;-70
2023/08/24 13:40:18;;;;;;;54.70;2.37;;;;;;;;;;5050734;28;20445;-70
2023/08/24 13:42:46;;;;;;;54.87;2.37;;;;;;;;;;5050322;28;20937;-70
2023/08/24 13:45:13;;;;;;;54.60;2.20;;;;;;;;;;5050462;28;20461;-70
2023/08/24 13:47:40;;;;;;;54.50;2.17;;;;;;;;;;5050611;28;20452;-71
2023/08/24 13:50:08;;;;;;;55.23;2.30;;;;;;;;;;5050577;28;20579;-70
2023/08/24 13:52:35;;;;;;;54.47;2.10;;;;;;;;;;5050381;28;20440;-71
2023/08/24 13:55:03;;;;;;;55.60;2.63;;;;;;;;;;5050446;28;20828;-71
2023/08/24 13:57:30;;;;;;;54.90;2.30;;;;;;;;;;5050476;28;20456;-71
2023/08/24 13:59:59;;;;;;;54.60;2.53;;;;;;;;;;5050345;28;20948;-71
2023/08/24 14:02:26;;;;;;;54.57;2.50;;;;;;;;;;5050361;28;20447;-71
2023/08/24 14:04:53;;;;;;;58.40;2.93;;;;;;;;;;5050461;28;20461;-71
2023/08/24 14:07:21;;;;;;;54.90;2.80;;;;;;;;;;5050613;28;20444;-71
2023/08/24 14:09:48;;;;;;;55.30;3.10;;;;;;;;;;5050386;28;20641;-71
2023/08/24 14:12:15;;;;;;;54.80;2.70;;;;;;;;;;5050113;28;20450;-71
2023/08/24 14:14:42;;;;;;;54.63;2.50;;;;;;;;;;5050173;28;20457;-71
2023/08/24 14:17:10;;;;;;;55.80;3.30;;;;;;;;;;5050613;28;20510;-71
2023/08/24 14:19:37;;;;;;;55.20;2.30;;;;;;;;;;5050307;28;20880;-71
2023/08/24 14:22:04;;;;;;;56.87;3.13;;;;;;;;;;5051619;28;20821;-71
2023/08/24 14:24:34;;;;;;;55.47;2.00;;;;;;;;;;5054013;28;20468;-71
2023/08/24 14:27:01;;;;;;;55.40;2.30;;;;;;;;;;5053783;28;20458;-71
2023/08/24 14:29:28;;;;;;;55.83;2.60;;;;;;;;;;5053883;28;20448;-71
2023/08/24 14:31:55;;;;;;;55.80;2.73;;;;;;;;;;5053663;28;20588;-70
2023/08/24 14:34:24;;;;;;;55.87;2.33;;;;;;;;;;5053765;28;20460;-71